sensor_id;sensor_type;location;lat;lon;timestamp;P1;durP1;ratioP1;P2;durP2;ratioP2
75689;SDS011;64303;53.118;9.044;2023-04-01T00:01:07;10.55;;;7.97;;
75689;SDS011;64303;53.118;9.044;2023-04-01T00:03:35;11.00;;;8.73;;
75689;SDS011;64303;53.118;9.044;2023-04-01T00:06:02;10.07;;;7.18;;
75689;SDS011;64303;53.118;9.044;2023-04-01T00:08:29;12.18;;;7.47;;
75689;SDS011;64303;53.118;9.044;2023-04-01T00:10:56;12.13;;;8.63;;
75689;SDS011;64303;53.118;9.044;2023-04-01T00:13:23;11.38;;;10.30;;
75689;SDS011;64303;53.118;9.044;2023-04-01T00:15:51;12.25;;;7.60;;
75689;SDS011;64303;53.118;9.044;2023-04-01T00:18:17;10.30;;;8.55;;
75689;SDS011;64303;53.118;9.044;2023-04-01T00:20:46;11.30;;;8.90;;
75689;SDS011;64303;53.118;9.044;2023-04-01T00:23:14;11.27;;;7.50;;
75689;SDS011;64303;53.118;9.044;2023-04-01T00:25:41;11.57;;;8.18;;
75689;SDS011;64303;53.118;9.044;2023-04-01T00:28:08;12.57;;;8.13;;
75689;SDS011;64303;53.118;9.044;2023-04-01T00:30:35;10.88;;;7.35;;
75689;SDS011;64303;53.118;9.044;2023-04-01T00:33:02;10.43;;;9.32;;
75689;SDS011;64303;53.118;9.044;2023-04-01T00:35:29;13.52;;;8.77;;
75689;SDS011;64303;53.118;9.044;2023-04-01T00:40:26;11.05;;;9.80;;
75689;SDS011;64303;53.118;9.044;2023-04-01T00:42:54;12.93;;;8.05;;
75689;SDS011;64303;53.118;9.044;2023-04-01T00:45:32;9.48;;;7.60;;
75689;SDS011;64303;53.118;9.044;2023-04-01T00:48:01;11.40;;;8.85;;
75689;SDS011;64303;53.118;9.044;2023-04-01T00:50:30;11.00;;;9.13;;
75689;SDS011;64303;53.118;9.044;2023-04-01T00:52:59;11.85;;;10.65;;
75689;SDS011;64303;53.118;9.044;2023-04-01T00:55:26;13.98;;;9.18;;
75689;SDS011;64303;53.118;9.044;2023-04-01T00:57:54;13.13;;;8.23;;
75689;SDS011;64303;53.118;9.044;2023-04-01T01:00:22;12.85;;;8.40;;
75689;SDS011;64303;53.118;9.044;2023-04-01T01:02:49;11.60;;;7.60;;
75689;SDS011;64303;53.118;9.044;2023-04-01T01:07:44;13.32;;;8.55;;
75689;SDS011;64303;53.118;9.044;2023-04-01T01:10:17;12.23;;;8.05;;
75689;SDS011;64303;53.118;9.044;2023-04-01T01:12:46;10.13;;;8.27;;
75689;SDS011;64303;53.118;9.044;2023-04-01T01:15:16;10.88;;;7.20;;
75689;SDS011;64303;53.118;9.044;2023-04-01T01:17:48;10.43;;;7.47;;
75689;SDS011;64303;53.118;9.044;2023-04-01T01:26:10;11.38;;;7.68;;
75689;SDS011;64303;53.118;9.044;2023-04-01T01:28:52;10.70;;;8.75;;
75689;SDS011;64303;53.118;9.044;2023-04-01T01:31:30;11.85;;;9.48;;
75689;SDS011;64303;53.118;9.044;2023-04-01T01:34:06;10.52;;;9.07;;
75689;SDS011;64303;53.118;9.044;2023-04-01T01:36:42;10.27;;;8.00;;
75689;SDS011;64303;53.118;9.044;2023-04-01T01:39:12;12.02;;;8.45;;
75689;SDS011;64303;53.118;9.044;2023-04-01T01:41:39;11.23;;;8.63;;
75689;SDS011;64303;53.118;9.044;2023-04-01T01:44:08;13.48;;;11.18;;
75689;SDS011;64303;53.118;9.044;2023-04-01T01:46:37;12.85;;;8.48;;
75689;SDS011;64303;53.118;9.044;2023-04-01T01:49:05;11.20;;;9.77;;
75689;SDS011;64303;53.118;9.044;2023-04-01T01:51:33;11.15;;;7.70;;
75689;SDS011;64303;53.118;9.044;2023-04-01T01:54:03;14.10;;;8.55;;
75689;SDS011;64303;53.118;9.044;2023-04-01T01:56:30;12.40;;;9.27;;
75689;SDS011;64303;53.118;9.044;2023-04-01T02:01:27;10.45;;;7.75;;
75689;SDS011;64303;53.118;9.044;2023-04-01T02:03:57;9.80;;;7.72;;
75689;SDS011;64303;53.118;9.044;2023-04-01T02:06:28;11.57;;;8.07;;
75689;SDS011;64303;53.118;9.044;2023-04-01T02:08:56;12.32;;;8.32;;
75689;SDS011;64303;53.118;9.044;2023-04-01T02:11:28;11.60;;;9.90;;
75689;SDS011;64303;53.118;9.044;2023-04-01T02:13:58;11.77;;;9.10;;
75689;SDS011;64303;53.118;9.044;2023-04-01T02:16:28;12.15;;;8.30;;
75689;SDS011;64303;53.118;9.044;2023-04-01T02:19:00;11.10;;;9.40;;
75689;SDS011;64303;53.118;9.044;2023-04-01T02:21:29;10.40;;;7.28;;
75689;SDS011;64303;53.118;9.044;2023-04-01T02:23:58;11.10;;;8.65;;
75689;SDS011;64303;53.118;9.044;2023-04-01T02:26:27;10.40;;;7.78;;
75689;SDS011;64303;53.118;9.044;2023-04-01T02:28:54;8.38;;;6.85;;
75689;SDS011;64303;53.118;9.044;2023-04-01T02:31:21;12.48;;;8.40;;
75689;SDS011;64303;53.118;9.044;2023-04-01T02:38:43;8.60;;;5.90;;
75689;SDS011;64303;53.118;9.044;2023-04-01T02:43:38;10.80;;;8.27;;
75689;SDS011;64303;53.118;9.044;2023-04-01T02:46:05;10.18;;;8.27;;
75689;SDS011;64303;53.118;9.044;2023-04-01T02:48:32;11.30;;;8.60;;
75689;SDS011;64303;53.118;9.044;2023-04-01T02:50:58;11.65;;;9.80;;
75689;SDS011;64303;53.118;9.044;2023-04-01T02:53:25;10.75;;;8.63;;
75689;SDS011;64303;53.118;9.044;2023-04-01T02:55:52;13.65;;;8.70;;
75689;SDS011;64303;53.118;9.044;2023-04-01T02:58:19;11.18;;;9.23;;
75689;SDS011;64303;53.118;9.044;2023-04-01T03:00:47;14.30;;;10.32;;
75689;SDS011;64303;53.118;9.044;2023-04-01T03:03:13;10.93;;;8.25;;
75689;SDS011;64303;53.118;9.044;2023-04-01T03:05:40;14.07;;;8.63;;
75689;SDS011;64303;53.118;9.044;2023-04-01T03:08:07;11.73;;;8.90;;
75689;SDS011;64303;53.118;9.044;2023-04-01T03:10:34;10.13;;;6.45;;
75689;SDS011;64303;53.118;9.044;2023-04-01T03:13:00;11.65;;;10.25;;
75689;SDS011;64303;53.118;9.044;2023-04-01T03:15:27;10.02;;;7.25;;
75689;SDS011;64303;53.118;9.044;2023-04-01T03:17:55;14.88;;;9.40;;
75689;SDS011;64303;53.118;9.044;2023-04-01T03:20:22;9.20;;;7.20;;
75689;SDS011;64303;53.118;9.044;2023-04-01T03:22:49;11.68;;;8.20;;
75689;SDS011;64303;53.118;9.044;2023-04-01T03:25:15;10.68;;;8.35;;
75689;SDS011;64303;53.118;9.044;2023-04-01T03:27:42;10.38;;;7.10;;
75689;SDS011;64303;53.118;9.044;2023-04-01T03:30:09;17.23;;;9.93;;
75689;SDS011;64303;53.118;9.044;2023-04-01T03:32:44;14.70;;;8.20;;
75689;SDS011;64303;53.118;9.044;2023-04-01T03:35:12;9.30;;;6.53;;
75689;SDS011;64303;53.118;9.044;2023-04-01T03:37:39;12.82;;;7.45;;
75689;SDS011;64303;53.118;9.044;2023-04-01T03:40:07;8.15;;;6.88;;
75689;SDS011;64303;53.118;9.044;2023-04-01T03:42:34;12.43;;;9.20;;
75689;SDS011;64303;53.118;9.044;2023-04-01T03:45:01;11.52;;;9.20;;
75689;SDS011;64303;53.118;9.044;2023-04-01T03:47:28;10.05;;;8.38;;
75689;SDS011;64303;53.118;9.044;2023-04-01T03:49:55;10.55;;;9.25;;
75689;SDS011;64303;53.118;9.044;2023-04-01T03:52:23;10.35;;;7.88;;
75689;SDS011;64303;53.118;9.044;2023-04-01T03:54:50;11.02;;;7.10;;
75689;SDS011;64303;53.118;9.044;2023-04-01T03:57:17;10.30;;;7.93;;
75689;SDS011;64303;53.118;9.044;2023-04-01T03:59:44;13.82;;;10.02;;
75689;SDS011;64303;53.118;9.044;2023-04-01T04:02:10;12.10;;;8.13;;
75689;SDS011;64303;53.118;9.044;2023-04-01T04:04:37;11.98;;;9.75;;
75689;SDS011;64303;53.118;9.044;2023-04-01T04:07:04;11.23;;;7.75;;
75689;SDS011;64303;53.118;9.044;2023-04-01T04:09:48;15.35;;;8.45;;
75689;SDS011;64303;53.118;9.044;2023-04-01T04:14:41;10.25;;;8.23;;
75689;SDS011;64303;53.118;9.044;2023-04-01T04:17:09;10.40;;;8.77;;
75689;SDS011;64303;53.118;9.044;2023-04-01T04:19:39;11.63;;;7.03;;
75689;SDS011;64303;53.118;9.044;2023-04-01T04:22:06;10.48;;;8.88;;
75689;SDS011;64303;53.118;9.044;2023-04-01T04:24:33;9.55;;;7.18;;
75689;SDS011;64303;53.118;9.044;2023-04-01T04:27:07;9.82;;;6.82;;
75689;SDS011;64303;53.118;9.044;2023-04-01T04:29:41;11.52;;;8.50;;
75689;SDS011;64303;53.118;9.044;2023-04-01T04:32:08;10.45;;;6.68;;
75689;SDS011;64303;53.118;9.044;2023-04-01T04:34:35;8.35;;;7.03;;
75689;SDS011;64303;53.118;9.044;2023-04-01T04:37:02;10.27;;;7.75;;
75689;SDS011;64303;53.118;9.044;2023-04-01T04:39:32;11.68;;;8.27;;
75689;SDS011;64303;53.118;9.044;2023-04-01T04:41:59;10.52;;;8.02;;
75689;SDS011;64303;53.118;9.044;2023-04-01T04:44:27;10.15;;;9.25;;
75689;SDS011;64303;53.118;9.044;2023-04-01T04:46:54;8.65;;;6.78;;
75689;SDS011;64303;53.118;9.044;2023-04-01T04:49:21;9.98;;;6.70;;
75689;SDS011;64303;53.118;9.044;2023-04-01T04:51:48;9.20;;;8.27;;
75689;SDS011;64303;53.118;9.044;2023-04-01T04:54:16;8.93;;;7.85;;
75689;SDS011;64303;53.118;9.044;2023-04-01T04:56:50;10.07;;;7.65;;
75689;SDS011;64303;53.118;9.044;2023-04-01T04:59:17;11.50;;;7.40;;
75689;SDS011;64303;53.118;9.044;2023-04-01T05:01:56;8.35;;;7.28;;
75689;SDS011;64303;53.118;9.044;2023-04-01T05:04:23;9.77;;;8.30;;
75689;SDS011;64303;53.118;9.044;2023-04-01T05:06:50;10.05;;;6.90;;
75689;SDS011;64303;53.118;9.044;2023-04-01T05:09:17;8.18;;;6.70;;
75689;SDS011;64303;53.118;9.044;2023-04-01T05:11:43;7.13;;;6.43;;
75689;SDS011;64303;53.118;9.044;2023-04-01T05:14:14;9.23;;;7.85;;
75689;SDS011;64303;53.118;9.044;2023-04-01T05:16:44;10.57;;;9.23;;
75689;SDS011;64303;53.118;9.044;2023-04-01T05:19:12;9.38;;;7.50;;
75689;SDS011;64303;53.118;9.044;2023-04-01T05:21:38;7.65;;;6.25;;
75689;SDS011;64303;53.118;9.044;2023-04-01T05:24:07;7.68;;;5.55;;
75689;SDS011;64303;53.118;9.044;2023-04-01T05:26:34;7.18;;;5.57;;
75689;SDS011;64303;53.118;9.044;2023-04-01T05:29:02;9.43;;;7.57;;
75689;SDS011;64303;53.118;9.044;2023-04-01T05:31:28;8.32;;;7.60;;
75689;SDS011;64303;53.118;9.044;2023-04-01T05:33:57;8.18;;;7.47;;
75689;SDS011;64303;53.118;9.044;2023-04-01T05:36:24;8.68;;;7.85;;
75689;SDS011;64303;53.118;9.044;2023-04-01T05:38:54;8.23;;;7.13;;
75689;SDS011;64303;53.118;9.044;2023-04-01T05:41:21;9.00;;;6.82;;
75689;SDS011;64303;53.118;9.044;2023-04-01T05:43:48;8.73;;;6.50;;
75689;SDS011;64303;53.118;9.044;2023-04-01T05:46:47;11.38;;;6.57;;
75689;SDS011;64303;53.118;9.044;2023-04-01T05:49:18;5.40;;;4.78;;
75689;SDS011;64303;53.118;9.044;2023-04-01T05:51:46;6.18;;;5.57;;
75689;SDS011;64303;53.118;9.044;2023-04-01T05:54:13;8.02;;;4.60;;
75689;SDS011;64303;53.118;9.044;2023-04-01T05:56:42;5.85;;;4.68;;
75689;SDS011;64303;53.118;9.044;2023-04-01T05:59:09;7.50;;;6.88;;
75689;SDS011;64303;53.118;9.044;2023-04-01T06:01:36;6.18;;;5.63;;
75689;SDS011;64303;53.118;9.044;2023-04-01T06:04:03;7.05;;;5.57;;
75689;SDS011;64303;53.118;9.044;2023-04-01T06:06:30;6.07;;;4.22;;
75689;SDS011;64303;53.118;9.044;2023-04-01T06:09:10;6.43;;;5.65;;
75689;SDS011;64303;53.118;9.044;2023-04-01T06:11:48;7.32;;;4.35;;
75689;SDS011;64303;53.118;9.044;2023-04-01T06:14:23;5.57;;;5.07;;
75689;SDS011;64303;53.118;9.044;2023-04-01T06:17:03;6.82;;;5.32;;
75689;SDS011;64303;53.118;9.044;2023-04-01T06:19:39;7.95;;;5.15;;
75689;SDS011;64303;53.118;9.044;2023-04-01T06:22:22;7.13;;;6.50;;
75689;SDS011;64303;53.118;9.044;2023-04-01T06:25:14;5.63;;;4.65;;
75689;SDS011;64303;53.118;9.044;2023-04-01T06:27:49;7.18;;;5.13;;
75689;SDS011;64303;53.118;9.044;2023-04-01T06:30:33;5.60;;;4.95;;
75689;SDS011;64303;53.118;9.044;2023-04-01T06:33:08;8.02;;;7.22;;
75689;SDS011;64303;53.118;9.044;2023-04-01T06:41:35;7.82;;;5.70;;
75689;SDS011;64303;53.118;9.044;2023-04-01T06:44:08;5.05;;;3.85;;
75689;SDS011;64303;53.118;9.044;2023-04-01T06:47:01;6.63;;;5.93;;
75689;SDS011;64303;53.118;9.044;2023-04-01T06:49:56;7.10;;;4.80;;
75689;SDS011;64303;53.118;9.044;2023-04-01T06:52:55;5.53;;;4.82;;
75689;SDS011;64303;53.118;9.044;2023-04-01T06:55:45;5.43;;;4.80;;
75689;SDS011;64303;53.118;9.044;2023-04-01T06:58:35;5.00;;;4.53;;
75689;SDS011;64303;53.118;9.044;2023-04-01T07:01:04;5.22;;;3.63;;
75689;SDS011;64303;53.118;9.044;2023-04-01T07:03:33;4.43;;;4.03;;
75689;SDS011;64303;53.118;9.044;2023-04-01T07:06:04;5.50;;;5.03;;
75689;SDS011;64303;53.118;9.044;2023-04-01T07:08:38;6.38;;;5.75;;
75689;SDS011;64303;53.118;9.044;2023-04-01T07:11:09;6.05;;;4.28;;
75689;SDS011;64303;53.118;9.044;2023-04-01T07:13:58;6.55;;;5.85;;
75689;SDS011;64303;53.118;9.044;2023-04-01T07:16:27;5.63;;;4.88;;
75689;SDS011;64303;53.118;9.044;2023-04-01T07:18:57;4.93;;;4.53;;
75689;SDS011;64303;53.118;9.044;2023-04-01T07:21:43;8.57;;;5.68;;
75689;SDS011;64303;53.118;9.044;2023-04-01T07:24:21;5.75;;;5.22;;
75689;SDS011;64303;53.118;9.044;2023-04-01T07:26:59;6.57;;;5.28;;
75689;SDS011;64303;53.118;9.044;2023-04-01T07:29:31;4.68;;;4.13;;
75689;SDS011;64303;53.118;9.044;2023-04-01T07:32:14;5.25;;;3.55;;
75689;SDS011;64303;53.118;9.044;2023-04-01T07:34:54;5.82;;;5.40;;
75689;SDS011;64303;53.118;9.044;2023-04-01T07:37:28;5.93;;;5.32;;
75689;SDS011;64303;53.118;9.044;2023-04-01T07:40:01;5.47;;;4.97;;
75689;SDS011;64303;53.118;9.044;2023-04-01T07:42:38;4.93;;;4.50;;
75689;SDS011;64303;53.118;9.044;2023-04-01T07:45:14;5.75;;;5.25;;
75689;SDS011;64303;53.118;9.044;2023-04-01T07:47:48;6.30;;;5.43;;
75689;SDS011;64303;53.118;9.044;2023-04-01T07:50:25;6.22;;;5.65;;
75689;SDS011;64303;53.118;9.044;2023-04-01T07:52:55;5.15;;;4.32;;
75689;SDS011;64303;53.118;9.044;2023-04-01T07:55:29;6.90;;;5.00;;
75689;SDS011;64303;53.118;9.044;2023-04-01T07:58:01;6.80;;;6.30;;
75689;SDS011;64303;53.118;9.044;2023-04-01T08:00:39;5.65;;;4.35;;
75689;SDS011;64303;53.118;9.044;2023-04-01T08:03:31;4.57;;;3.47;;
75689;SDS011;64303;53.118;9.044;2023-04-01T08:06:06;5.72;;;5.30;;
75689;SDS011;64303;53.118;9.044;2023-04-01T08:08:41;5.97;;;4.28;;
75689;SDS011;64303;53.118;9.044;2023-04-01T08:11:37;4.65;;;4.22;;
75689;SDS011;64303;53.118;9.044;2023-04-01T08:14:31;4.97;;;4.38;;
75689;SDS011;64303;53.118;9.044;2023-04-01T08:17:24;4.63;;;4.28;;
75689;SDS011;64303;53.118;9.044;2023-04-01T08:22:30;5.78;;;4.03;;
75689;SDS011;64303;53.118;9.044;2023-04-01T08:25:01;5.30;;;4.68;;
75689;SDS011;64303;53.118;9.044;2023-04-01T08:27:34;5.93;;;4.63;;
75689;SDS011;64303;53.118;9.044;2023-04-01T08:30:03;6.50;;;6.00;;
75689;SDS011;64303;53.118;9.044;2023-04-01T08:32:36;4.85;;;3.83;;
75689;SDS011;64303;53.118;9.044;2023-04-01T08:35:07;7.78;;;5.05;;
75689;SDS011;64303;53.118;9.044;2023-04-01T08:37:39;6.07;;;5.57;;
75689;SDS011;64303;53.118;9.044;2023-04-01T08:40:16;4.15;;;3.83;;
75689;SDS011;64303;53.118;9.044;2023-04-01T08:43:02;4.88;;;4.47;;
75689;SDS011;64303;53.118;9.044;2023-04-01T08:45:40;4.38;;;3.88;;
75689;SDS011;64303;53.118;9.044;2023-04-01T08:48:25;4.18;;;3.78;;
75689;SDS011;64303;53.118;9.044;2023-04-01T08:51:14;4.18;;;3.88;;
75689;SDS011;64303;53.118;9.044;2023-04-01T08:53:58;3.95;;;3.63;;
75689;SDS011;64303;53.118;9.044;2023-04-01T08:56:33;4.28;;;3.97;;
75689;SDS011;64303;53.118;9.044;2023-04-01T08:59:13;4.07;;;3.65;;
75689;SDS011;64303;53.118;9.044;2023-04-01T09:01:51;4.85;;;4.45;;
75689;SDS011;64303;53.118;9.044;2023-04-01T09:07:57;4.18;;;3.88;;
75689;SDS011;64303;53.118;9.044;2023-04-01T09:10:32;4.15;;;3.72;;
75689;SDS011;64303;53.118;9.044;2023-04-01T09:16:17;5.07;;;4.68;;
75689;SDS011;64303;53.118;9.044;2023-04-01T09:18:59;6.70;;;5.07;;
75689;SDS011;64303;53.118;9.044;2023-04-01T09:21:39;4.45;;;3.75;;
75689;SDS011;64303;53.118;9.044;2023-04-01T09:24:26;4.85;;;4.47;;
75689;SDS011;64303;53.118;9.044;2023-04-01T09:27:10;5.40;;;5.00;;
75689;SDS011;64303;53.118;9.044;2023-04-01T09:29:55;4.95;;;4.47;;
75689;SDS011;64303;53.118;9.044;2023-04-01T09:33:04;5.32;;;4.93;;
75689;SDS011;64303;53.118;9.044;2023-04-01T09:35:38;5.38;;;4.97;;
75689;SDS011;64303;53.118;9.044;2023-04-01T09:38:17;5.57;;;5.20;;
75689;SDS011;64303;53.118;9.044;2023-04-01T09:40:48;5.85;;;5.43;;
75689;SDS011;64303;53.118;9.044;2023-04-01T09:43:39;3.90;;;3.60;;
75689;SDS011;64303;53.118;9.044;2023-04-01T09:46:19;4.20;;;3.72;;
75689;SDS011;64303;53.118;9.044;2023-04-01T09:49:00;4.45;;;4.00;;
75689;SDS011;64303;53.118;9.044;2023-04-01T09:51:37;4.82;;;4.43;;
75689;SDS011;64303;53.118;9.044;2023-04-01T09:54:13;3.88;;;3.58;;
75689;SDS011;64303;53.118;9.044;2023-04-01T09:57:07;5.78;;;5.28;;
75689;SDS011;64303;53.118;9.044;2023-04-01T10:00:27;3.20;;;3.00;;
75689;SDS011;64303;53.118;9.044;2023-04-01T10:03:18;4.20;;;4.00;;
75689;SDS011;64303;53.118;9.044;2023-04-01T10:05:58;4.55;;;4.25;;
75689;SDS011;64303;53.118;9.044;2023-04-01T10:09:03;3.88;;;3.65;;
75689;SDS011;64303;53.118;9.044;2023-04-01T10:17:54;4.95;;;4.65;;
75689;SDS011;64303;53.118;9.044;2023-04-01T10:20:40;3.83;;;3.58;;
75689;SDS011;64303;53.118;9.044;2023-04-01T10:23:20;5.25;;;4.95;;
75689;SDS011;64303;53.118;9.044;2023-04-01T10:26:12;5.78;;;5.47;;
75689;SDS011;64303;53.118;9.044;2023-04-01T10:29:18;3.63;;;3.42;;
75689;SDS011;64303;53.118;9.044;2023-04-01T10:32:15;5.63;;;5.32;;
75689;SDS011;64303;53.118;9.044;2023-04-01T10:38:01;3.78;;;3.58;;
75689;SDS011;64303;53.118;9.044;2023-04-01T10:40:57;4.45;;;4.15;;
75689;SDS011;64303;53.118;9.044;2023-04-01T10:47:19;4.78;;;4.47;;
75689;SDS011;64303;53.118;9.044;2023-04-01T10:50:24;3.28;;;3.05;;
75689;SDS011;64303;53.118;9.044;2023-04-01T10:56:39;5.45;;;5.13;;
75689;SDS011;64303;53.118;9.044;2023-04-01T10:59:51;4.38;;;4.10;;
75689;SDS011;64303;53.118;9.044;2023-04-01T11:09:36;4.18;;;3.95;;
75689;SDS011;64303;53.118;9.044;2023-04-01T11:18:39;4.55;;;4.25;;
75689;SDS011;64303;53.118;9.044;2023-04-01T11:21:22;3.65;;;3.35;;
75689;SDS011;64303;53.118;9.044;2023-04-01T11:24:14;4.82;;;4.53;;
75689;SDS011;64303;53.118;9.044;2023-04-01T11:27:05;4.38;;;3.97;;
75689;SDS011;64303;53.118;9.044;2023-04-01T11:29:50;4.43;;;3.95;;
75689;SDS011;64303;53.118;9.044;2023-04-01T11:32:42;4.90;;;4.60;;
75689;SDS011;64303;53.118;9.044;2023-04-01T11:38:06;5.55;;;5.25;;
75689;SDS011;64303;53.118;9.044;2023-04-01T11:40:47;5.13;;;4.80;;
75689;SDS011;64303;53.118;9.044;2023-04-01T11:43:38;3.35;;;3.13;;
75689;SDS011;64303;53.118;9.044;2023-04-01T11:46:28;4.65;;;4.28;;
75689;SDS011;64303;53.118;9.044;2023-04-01T11:49:02;3.50;;;3.20;;
75689;SDS011;64303;53.118;9.044;2023-04-01T11:51:48;4.80;;;4.43;;
75689;SDS011;64303;53.118;9.044;2023-04-01T11:54:27;3.92;;;3.63;;
75689;SDS011;64303;53.118;9.044;2023-04-01T11:57:03;3.75;;;3.45;;
75689;SDS011;64303;53.118;9.044;2023-04-01T11:59:43;6.57;;;6.10;;
75689;SDS011;64303;53.118;9.044;2023-04-01T12:02:42;3.28;;;3.00;;
75689;SDS011;64303;53.118;9.044;2023-04-01T12:05:36;4.40;;;4.10;;
75689;SDS011;64303;53.118;9.044;2023-04-01T12:08:12;4.68;;;4.38;;
75689;SDS011;64303;53.118;9.044;2023-04-01T12:10:47;6.93;;;4.15;;
75689;SDS011;64303;53.118;9.044;2023-04-01T12:13:23;4.20;;;3.85;;
75689;SDS011;64303;53.118;9.044;2023-04-01T12:15:58;5.22;;;4.82;;
75689;SDS011;64303;53.118;9.044;2023-04-01T12:18:33;4.90;;;4.55;;
75689;SDS011;64303;53.118;9.044;2023-04-01T12:21:04;6.32;;;5.85;;
75689;SDS011;64303;53.118;9.044;2023-04-01T12:23:45;4.18;;;3.83;;
75689;SDS011;64303;53.118;9.044;2023-04-01T12:28:59;3.38;;;3.17;;
75689;SDS011;64303;53.118;9.044;2023-04-01T12:31:37;4.55;;;4.07;;
75689;SDS011;64303;53.118;9.044;2023-04-01T12:37:15;4.40;;;4.10;;
75689;SDS011;64303;53.118;9.044;2023-04-01T12:42:54;5.15;;;4.82;;
75689;SDS011;64303;53.118;9.044;2023-04-01T12:45:29;4.00;;;3.70;;
75689;SDS011;64303;53.118;9.044;2023-04-01T12:48:03;4.28;;;3.97;;
75689;SDS011;64303;53.118;9.044;2023-04-01T12:50:43;3.60;;;3.30;;
75689;SDS011;64303;53.118;9.044;2023-04-01T12:53:28;5.50;;;5.15;;
75689;SDS011;64303;53.118;9.044;2023-04-01T12:56:13;4.35;;;4.05;;
75689;SDS011;64303;53.118;9.044;2023-04-01T13:01:52;3.75;;;3.45;;
75689;SDS011;64303;53.118;9.044;2023-04-01T13:07:49;4.20;;;3.90;;
75689;SDS011;64303;53.118;9.044;2023-04-01T13:10:38;4.68;;;4.38;;
75689;SDS011;64303;53.118;9.044;2023-04-01T13:13:19;3.65;;;3.45;;
75689;SDS011;64303;53.118;9.044;2023-04-01T13:16:03;3.20;;;2.92;;
75689;SDS011;64303;53.118;9.044;2023-04-01T13:18:35;5.05;;;4.75;;
75689;SDS011;64303;53.118;9.044;2023-04-01T13:21:08;6.70;;;6.30;;
75689;SDS011;64303;53.118;9.044;2023-04-01T13:23:45;4.18;;;3.95;;
75689;SDS011;64303;53.118;9.044;2023-04-01T13:26:18;6.53;;;6.13;;
75689;SDS011;64303;53.118;9.044;2023-04-01T13:28:50;4.07;;;3.78;;
75689;SDS011;64303;53.118;9.044;2023-04-01T13:31:27;3.33;;;3.03;;
75689;SDS011;64303;53.118;9.044;2023-04-01T13:34:04;4.40;;;4.10;;
75689;SDS011;64303;53.118;9.044;2023-04-01T13:36:40;4.10;;;3.88;;
75689;SDS011;64303;53.118;9.044;2023-04-01T13:39:15;5.78;;;5.45;;
75689;SDS011;64303;53.118;9.044;2023-04-01T13:42:02;4.40;;;4.13;;
75689;SDS011;64303;53.118;9.044;2023-04-01T13:44:46;4.00;;;3.78;;
75689;SDS011;64303;53.118;9.044;2023-04-01T13:47:25;3.42;;;3.20;;
75689;SDS011;64303;53.118;9.044;2023-04-01T13:50:06;4.78;;;4.47;;
75689;SDS011;64303;53.118;9.044;2023-04-01T13:52:50;5.28;;;4.97;;
75689;SDS011;64303;53.118;9.044;2023-04-01T13:55:39;5.70;;;5.38;;
75689;SDS011;64303;53.118;9.044;2023-04-01T13:58:35;5.47;;;5.18;;
75689;SDS011;64303;53.118;9.044;2023-04-01T14:06:31;3.78;;;3.47;;
75689;SDS011;64303;53.118;9.044;2023-04-01T14:12:02;3.95;;;3.65;;
75689;SDS011;64303;53.118;9.044;2023-04-01T14:14:33;4.90;;;4.50;;
75689;SDS011;64303;53.118;9.044;2023-04-01T14:17:22;4.82;;;4.53;;
75689;SDS011;64303;53.118;9.044;2023-04-01T14:20:01;4.10;;;3.72;;
75689;SDS011;64303;53.118;9.044;2023-04-01T14:22:45;4.30;;;3.90;;
75689;SDS011;64303;53.118;9.044;2023-04-01T14:25:25;4.47;;;4.07;;
75689;SDS011;64303;53.118;9.044;2023-04-01T14:28:03;5.68;;;5.13;;
75689;SDS011;64303;53.118;9.044;2023-04-01T14:30:37;4.55;;;4.22;;
75689;SDS011;64303;53.118;9.044;2023-04-01T14:33:12;4.60;;;4.20;;
75689;SDS011;64303;53.118;9.044;2023-04-01T14:35:50;5.22;;;4.80;;
75689;SDS011;64303;53.118;9.044;2023-04-01T14:38:28;5.82;;;5.43;;
75689;SDS011;64303;53.118;9.044;2023-04-01T14:41:02;5.88;;;5.20;;
75689;SDS011;64303;53.118;9.044;2023-04-01T14:43:42;4.85;;;4.35;;
75689;SDS011;64303;53.118;9.044;2023-04-01T14:46:23;6.35;;;4.97;;
75689;SDS011;64303;53.118;9.044;2023-04-01T14:48:57;6.07;;;5.65;;
75689;SDS011;64303;53.118;9.044;2023-04-01T14:53:59;6.38;;;5.63;;
75689;SDS011;64303;53.118;9.044;2023-04-01T14:56:35;6.82;;;6.32;;
75689;SDS011;64303;53.118;9.044;2023-04-01T15:01:33;4.15;;;3.83;;
75689;SDS011;64303;53.118;9.044;2023-04-01T15:04:13;6.75;;;5.95;;
75689;SDS011;64303;53.118;9.044;2023-04-01T15:06:57;6.80;;;6.18;;
75689;SDS011;64303;53.118;9.044;2023-04-01T15:09:30;5.40;;;4.82;;
75689;SDS011;64303;53.118;9.044;2023-04-01T15:12:07;4.75;;;4.20;;
75689;SDS011;64303;53.118;9.044;2023-04-01T15:14:46;6.75;;;5.45;;
75689;SDS011;64303;53.118;9.044;2023-04-01T15:17:22;7.25;;;6.75;;
75689;SDS011;64303;53.118;9.044;2023-04-01T15:20:10;5.88;;;4.72;;
75689;SDS011;64303;53.118;9.044;2023-04-01T15:22:52;6.38;;;5.82;;
75689;SDS011;64303;53.118;9.044;2023-04-01T15:25:34;5.93;;;5.43;;
75689;SDS011;64303;53.118;9.044;2023-04-01T15:28:10;4.90;;;4.45;;
75689;SDS011;64303;53.118;9.044;2023-04-01T15:30:47;4.55;;;4.15;;
75689;SDS011;64303;53.118;9.044;2023-04-01T15:33:29;4.32;;;4.00;;
75689;SDS011;64303;53.118;9.044;2023-04-01T15:36:08;5.45;;;4.97;;
75689;SDS011;64303;53.118;9.044;2023-04-01T15:38:40;5.95;;;5.43;;
75689;SDS011;64303;53.118;9.044;2023-04-01T15:41:13;6.40;;;5.85;;
75689;SDS011;64303;53.118;9.044;2023-04-01T15:43:42;5.22;;;4.70;;
75689;SDS011;64303;53.118;9.044;2023-04-01T15:46:17;4.82;;;4.43;;
75689;SDS011;64303;53.118;9.044;2023-04-01T15:48:52;6.53;;;6.05;;
75689;SDS011;64303;53.118;9.044;2023-04-01T15:51:28;6.38;;;4.97;;
75689;SDS011;64303;53.118;9.044;2023-04-01T15:57:11;6.20;;;5.32;;
75689;SDS011;64303;53.118;9.044;2023-04-01T15:59:48;4.75;;;4.28;;
75689;SDS011;64303;53.118;9.044;2023-04-01T16:02:21;6.15;;;5.55;;
75689;SDS011;64303;53.118;9.044;2023-04-01T16:04:56;5.28;;;4.85;;
75689;SDS011;64303;53.118;9.044;2023-04-01T16:07:43;6.55;;;5.97;;
75689;SDS011;64303;53.118;9.044;2023-04-01T16:10:21;4.60;;;4.20;;
75689;SDS011;64303;53.118;9.044;2023-04-01T16:12:54;4.82;;;4.43;;
75689;SDS011;64303;53.118;9.044;2023-04-01T16:15:33;5.82;;;3.45;;
75689;SDS011;64303;53.118;9.044;2023-04-01T16:18:20;5.05;;;4.55;;
75689;SDS011;64303;53.118;9.044;2023-04-01T16:20:53;4.78;;;4.38;;
75689;SDS011;64303;53.118;9.044;2023-04-01T16:23:24;6.18;;;5.07;;
75689;SDS011;64303;53.118;9.044;2023-04-01T16:25:57;7.78;;;4.18;;
75689;SDS011;64303;53.118;9.044;2023-04-01T16:28:29;5.22;;;4.72;;
75689;SDS011;64303;53.118;9.044;2023-04-01T16:30:58;6.60;;;6.07;;
75689;SDS011;64303;53.118;9.044;2023-04-01T16:33:31;9.55;;;6.80;;
75689;SDS011;64303;53.118;9.044;2023-04-01T16:36:05;6.43;;;5.85;;
75689;SDS011;64303;53.118;9.044;2023-04-01T16:38:37;7.10;;;5.80;;
75689;SDS011;64303;53.118;9.044;2023-04-01T16:41:13;4.93;;;4.40;;
75689;SDS011;64303;53.118;9.044;2023-04-01T16:43:43;6.93;;;6.32;;
75689;SDS011;64303;53.118;9.044;2023-04-01T16:46:18;4.25;;;3.85;;
75689;SDS011;64303;53.118;9.044;2023-04-01T16:48:58;5.43;;;4.82;;
75689;SDS011;64303;53.118;9.044;2023-04-01T16:51:26;6.38;;;5.88;;
75689;SDS011;64303;53.118;9.044;2023-04-01T16:54:02;6.65;;;6.15;;
75689;SDS011;64303;53.118;9.044;2023-04-01T16:56:38;6.82;;;5.70;;
75689;SDS011;64303;53.118;9.044;2023-04-01T16:59:07;8.23;;;6.15;;
75689;SDS011;64303;53.118;9.044;2023-04-01T17:01:43;7.43;;;5.15;;
75689;SDS011;64303;53.118;9.044;2023-04-01T17:04:13;5.38;;;4.88;;
75689;SDS011;64303;53.118;9.044;2023-04-01T17:06:47;6.97;;;4.85;;
75689;SDS011;64303;53.118;9.044;2023-04-01T17:09:25;6.22;;;5.63;;
75689;SDS011;64303;53.118;9.044;2023-04-01T17:12:00;8.02;;;7.30;;
75689;SDS011;64303;53.118;9.044;2023-04-01T17:14:30;6.88;;;5.60;;